Time;durP1;ratioP1;P1;durP2;ratioP2;P2;SDS_P1;SDS_P2;PMS_P1;PMS_P2;Temp;Humidity;BMP_temperature;BMP_pressure;BME280_temperature;BME280_humidity;BME280_pressure;Samples;Min_cycle;Max_cycle;Signal;HPM_P1;HPM_P2
2023/07/11 00:01:16;;;;;;;8.00;7.30;;;;;;;;;;5013572;28;20446;-64
2023/07/11 00:03:42;;;;;;;9.03;7.83;;;;;;;;;;5012561;28;20979;-64
2023/07/11 00:06:09;;;;;;;11.57;8.10;;;;;;;;;;5013665;28;20449;-64
2023/07/11 00:08:39;;;;;;;9.17;8.30;;;;;;;;;;5013776;28;20804;-64
2023/07/11 00:11:11;;;;;;;9.73;7.67;;;;;;;;;;5013562;28;20524;-64
2023/07/11 00:13:40;;;;;;;9.00;7.30;;;;;;;;;;5013683;28;20873;-64
2023/07/11 00:16:08;;;;;;;10.30;7.10;;;;;;;;;;5013839;28;20468;-64
2023/07/11 00:18:34;;;;;;;8.93;7.50;;;;;;;;;;5013489;28;20909;-64
2023/07/11 00:21:04;;;;;;;8.03;7.23;;;;;;;;;;5013633;28;20475;-64
2023/07/11 00:23:30;;;;;;;10.93;7.97;;;;;;;;;;5013584;28;20901;-64
2023/07/11 00:25:56;;;;;;;7.67;6.97;;;;;;;;;;5013121;28;20504;-64
2023/07/11 00:28:22;;;;;;;9.10;8.20;;;;;;;;;;5013496;28;20392;-64
2023/07/11 00:30:51;;;;;;;8.90;7.63;;;;;;;;;;5013481;28;20476;-64
2023/07/11 00:33:18;;;;;;;8.20;7.53;;;;;;;;;;5013606;28;20432;-64
2023/07/11 00:35:45;;;;;;;9.83;7.43;;;;;;;;;;5013200;28;20448;-64
2023/07/11 00:38:12;;;;;;;7.97;7.47;;;;;;;;;;5013504;28;20418;-64
2023/07/11 00:40:45;;;;;;;7.93;7.43;;;;;;;;;;5013152;28;20522;-64
2023/07/11 00:43:12;;;;;;;8.30;7.40;;;;;;;;;;5011966;28;20937;-64
2023/07/11 00:45:57;;;;;;;7.97;7.40;;;;;;;;;;5013204;28;20920;-64
2023/07/11 00:48:23;;;;;;;9.40;7.73;;;;;;;;;;5012964;28;20429;-64
2023/07/11 00:50:50;;;;;;;8.43;7.60;;;;;;;;;;5013033;28;20425;-64
2023/07/11 00:53:19;;;;;;;12.60;8.13;;;;;;;;;;5012877;28;20427;-64
2023/07/11 00:55:46;;;;;;;10.40;7.50;;;;;;;;;;5012988;28;20896;-64
2023/07/11 00:58:12;;;;;;;9.83;8.20;;;;;;;;;;5013187;28;20414;-64
2023/07/11 01:00:38;;;;;;;7.73;7.07;;;;;;;;;;5010828;28;20457;-64
2023/07/11 01:03:07;;;;;;;12.07;8.57;;;;;;;;;;5012963;28;20421;-64
2023/07/11 01:05:35;;;;;;;7.43;6.83;;;;;;;;;;5011386;28;20453;-64
2023/07/11 01:08:01;;;;;;;14.83;8.10;;;;;;;;;;5012976;28;20396;-64
2023/07/11 01:10:27;;;;;;;9.50;8.50;;;;;;;;;;5012759;28;20891;-64
2023/07/11 01:13:00;;;;;;;9.40;8.30;;;;;;;;;;5012685;28;20415;-64
2023/07/11 01:15:25;;;;;;;9.13;8.50;;;;;;;;;;5011665;28;20447;-64
2023/07/11 01:17:51;;;;;;;8.80;8.10;;;;;;;;;;5012949;28;20466;-64
2023/07/11 01:20:17;;;;;;;9.27;8.37;;;;;;;;;;5012789;28;20542;-64
2023/07/11 01:22:44;;;;;;;26.33;9.00;;;;;;;;;;5012764;28;20546;-64
2023/07/11 01:25:14;;;;;;;8.00;7.40;;;;;;;;;;5012356;28;20415;-64
2023/07/11 01:27:41;;;;;;;10.53;8.23;;;;;;;;;;5012756;28;20911;-64
2023/07/11 01:30:09;;;;;;;9.13;7.90;;;;;;;;;;5012789;28;20411;-64
2023/07/11 01:32:35;;;;;;;8.17;7.40;;;;;;;;;;5012183;28;20477;-64
2023/07/11 01:35:01;;;;;;;9.97;8.00;;;;;;;;;;5012481;28;20455;-64
2023/07/11 01:37:29;;;;;;;9.10;8.30;;;;;;;;;;5012384;28;20470;-64
2023/07/11 01:39:56;;;;;;;9.40;8.37;;;;;;;;;;5012563;28;20433;-64
2023/07/11 01:42:22;;;;;;;11.60;8.33;;;;;;;;;;5012492;28;20546;-64
2023/07/11 01:44:48;;;;;;;9.07;8.20;;;;;;;;;;5012317;28;20470;-64
2023/07/11 01:47:14;;;;;;;8.70;7.80;;;;;;;;;;5012402;28;20424;-64
2023/07/11 01:49:40;;;;;;;9.30;7.83;;;;;;;;;;5010987;28;20593;-64
2023/07/11 01:52:18;;;;;;;18.30;8.40;;;;;;;;;;5012349;28;20501;-64
2023/07/11 01:54:44;;;;;;;9.97;9.07;;;;;;;;;;5012001;28;20436;-64
2023/07/11 01:57:10;;;;;;;9.07;8.17;;;;;;;;;;5012019;28;20475;-64
2023/07/11 01:59:37;;;;;;;8.93;8.03;;;;;;;;;;5011218;28;20427;-64
2023/07/11 02:02:03;;;;;;;8.57;7.87;;;;;;;;;;5011979;28;20445;-64
2023/07/11 02:04:29;;;;;;;8.90;8.10;;;;;;;;;;5012283;28;20424;-64
2023/07/11 02:06:55;;;;;;;8.10;7.60;;;;;;;;;;5012055;28;20447;-64
2023/07/11 02:09:32;;;;;;;8.03;7.50;;;;;;;;;;5010871;28;20445;-64
2023/07/11 02:11:58;;;;;;;9.40;8.50;;;;;;;;;;5014095;28;20516;-64
2023/07/11 02:14:24;;;;;;;9.83;8.83;;;;;;;;;;5015446;28;20434;-64
2023/07/11 02:16:51;;;;;;;10.53;8.27;;;;;;;;;;5015746;28;20471;-64
2023/07/11 02:19:18;;;;;;;10.33;9.30;;;;;;;;;;5015698;28;20412;-64
2023/07/11 02:21:45;;;;;;;9.87;8.60;;;;;;;;;;5015822;28;20889;-64
2023/07/11 02:24:12;;;;;;;10.33;8.87;;;;;;;;;;5015668;28;20930;-64
2023/07/11 02:26:41;;;;;;;8.90;8.00;;;;;;;;;;5015698;28;20416;-64
2023/07/11 02:29:08;;;;;;;9.03;8.33;;;;;;;;;;5015162;28;20458;-64
2023/07/11 02:31:34;;;;;;;10.00;8.33;;;;;;;;;;5015373;28;20434;-64
2023/07/11 02:34:01;;;;;;;10.93;8.50;;;;;;;;;;5015423;28;20466;-64
2023/07/11 02:36:27;;;;;;;11.53;8.47;;;;;;;;;;5015141;28;20469;-64
2023/07/11 02:38:53;;;;;;;9.07;8.27;;;;;;;;;;5014085;28;20973;-64
2023/07/11 02:41:19;;;;;;;9.60;8.43;;;;;;;;;;5015456;28;20938;-64
2023/07/11 02:43:48;;;;;;;9.70;8.80;;;;;;;;;;5014082;28;20797;-64
2023/07/11 02:46:16;;;;;;;20.13;8.80;;;;;;;;;;5015215;28;20909;-64
2023/07/11 02:48:43;;;;;;;9.67;8.40;;;;;;;;;;5015337;28;20518;-64
2023/07/11 02:51:12;;;;;;;10.90;8.90;;;;;;;;;;5015117;28;20478;-64
2023/07/11 02:53:38;;;;;;;17.00;7.83;;;;;;;;;;5015142;28;20898;-64
2023/07/11 02:56:04;;;;;;;10.17;9.10;;;;;;;;;;5015013;28;20467;-64
2023/07/11 02:58:30;;;;;;;8.50;8.00;;;;;;;;;;5015046;28;21025;-64
2023/07/11 03:00:59;;;;;;;9.73;8.73;;;;;;;;;;5015087;28;20510;-64
2023/07/11 03:03:25;;;;;;;9.43;8.53;;;;;;;;;;5015234;28;20419;-64
2023/07/11 03:05:54;;;;;;;15.70;8.30;;;;;;;;;;5013691;28;20513;-64
2023/07/11 03:08:20;;;;;;;9.40;8.53;;;;;;;;;;5015124;28;20531;-64
2023/07/11 03:10:46;;;;;;;8.93;8.03;;;;;;;;;;5015134;28;20423;-64
2023/07/11 03:13:12;;;;;;;11.33;9.00;;;;;;;;;;5015089;28;20442;-64
2023/07/11 03:15:39;;;;;;;10.20;8.50;;;;;;;;;;5013877;28;20429;-64
2023/07/11 03:18:08;;;;;;;10.20;8.07;;;;;;;;;;5014926;28;20471;-64
2023/07/11 03:20:43;;;;;;;12.47;8.97;;;;;;;;;;5014562;28;20456;-64
2023/07/11 03:23:10;;;;;;;13.23;8.53;;;;;;;;;;5014110;28;20492;-64
2023/07/11 03:25:36;;;;;;;13.50;8.03;;;;;;;;;;5014651;28;20416;-64
2023/07/11 03:28:02;;;;;;;9.10;8.20;;;;;;;;;;5014798;28;20463;-64
2023/07/11 03:30:30;;;;;;;9.47;8.57;;;;;;;;;;5014230;28;20475;-64
2023/07/11 03:32:56;;;;;;;12.47;9.13;;;;;;;;;;5014594;28;20431;-64
2023/07/11 03:35:22;;;;;;;11.37;8.30;;;;;;;;;;5014303;28;20480;-61
2023/07/11 03:37:50;;;;;;;10.30;9.37;;;;;;;;;;5014288;28;20966;-61
2023/07/11 03:40:16;;;;;;;10.50;8.73;;;;;;;;;;5014278;28;20825;-61
2023/07/11 03:42:42;;;;;;;8.33;7.73;;;;;;;;;;5014082;28;20416;-61
2023/07/11 03:45:08;;;;;;;11.00;8.50;;;;;;;;;;5014106;28;20420;-61
2023/07/11 03:47:34;;;;;;;13.50;8.53;;;;;;;;;;5012743;28;20454;-61
2023/07/11 03:50:00;;;;;;;10.03;8.07;;;;;;;;;;5014110;28;20416;-61
2023/07/11 03:52:26;;;;;;;8.73;8.03;;;;;;;;;;5013802;28;20531;-61
2023/07/11 03:54:55;;;;;;;14.13;9.23;;;;;;;;;;5014084;28;20428;-61
2023/07/11 03:57:23;;;;;;;18.67;8.30;;;;;;;;;;5013527;28;20537;-60
2023/07/11 03:59:49;;;;;;;9.50;8.30;;;;;;;;;;5013356;28;20420;-61
2023/07/11 04:02:16;;;;;;;9.30;8.43;;;;;;;;;;5013663;28;20531;-60
2023/07/11 04:04:42;;;;;;;9.63;8.43;;;;;;;;;;5013486;28;20477;-61
2023/07/11 04:07:08;;;;;;;32.27;19.07;;;;;;;;;;5013528;28;20416;-61
2023/07/11 04:09:34;;;;;;;13.97;12.33;;;;;;;;;;5013579;28;20998;-61
2023/07/11 04:12:00;;;;;;;26.73;13.23;;;;;;;;;;5013025;28;20435;-61
2023/07/11 04:14:26;;;;;;;10.63;9.70;;;;;;;;;;5013841;28;20930;-61
2023/07/11 04:16:52;;;;;;;9.77;8.80;;;;;;;;;;5012752;28;20471;-61
2023/07/11 04:19:21;;;;;;;11.23;8.60;;;;;;;;;;5013082;28;20787;-61
2023/07/11 04:21:47;;;;;;;9.87;8.80;;;;;;;;;;5013519;28;20762;-61
2023/07/11 04:24:13;;;;;;;12.77;8.80;;;;;;;;;;5013462;28;20422;-61
2023/07/11 04:26:39;;;;;;;10.60;8.70;;;;;;;;;;5013167;28;20424;-61
2023/07/11 04:29:05;;;;;;;45.80;39.47;;;;;;;;;;5012880;28;20507;-61
2023/07/11 04:31:31;;;;;;;15.70;11.40;;;;;;;;;;5013249;28;20426;-61
2023/07/11 04:33:57;;;;;;;10.40;9.03;;;;;;;;;;5013079;28;20424;-61
2023/07/11 04:36:22;;;;;;;9.90;8.80;;;;;;;;;;5013085;28;20476;-61
2023/07/11 04:38:51;;;;;;;9.43;8.73;;;;;;;;;;5013338;28;20415;-61
2023/07/11 04:41:17;;;;;;;11.00;9.93;;;;;;;;;;5013120;28;20474;-61
2023/07/11 04:43:43;;;;;;;13.13;8.93;;;;;;;;;;5013057;28;20449;-61
2023/07/11 04:46:09;;;;;;;13.77;8.57;;;;;;;;;;5013425;28;20860;-61
2023/07/11 04:48:35;;;;;;;12.47;9.00;;;;;;;;;;5013041;28;20440;-61
2023/07/11 04:51:03;;;;;;;20.43;9.63;;;;;;;;;;5013277;28;20784;-61
2023/07/11 04:53:30;;;;;;;9.40;8.70;;;;;;;;;;5012734;28;20445;-61
2023/07/11 04:56:03;;;;;;;13.30;10.17;;;;;;;;;;5012396;28;20804;-60
2023/07/11 04:58:32;;;;;;;9.33;8.50;;;;;;;;;;5012745;28;20469;-61
2023/07/11 05:01:00;;;;;;;14.90;8.47;;;;;;;;;;5012577;28;20906;-61
2023/07/11 05:03:26;;;;;;;9.60;8.70;;;;;;;;;;5012632;28;20448;-61
2023/07/11 05:05:52;;;;;;;10.83;9.80;;;;;;;;;;5012642;28;20776;-60
2023/07/11 05:08:18;;;;;;;9.57;8.73;;;;;;;;;;5012185;28;20696;-61
2023/07/11 05:11:04;;;;;;;9.60;8.90;;;;;;;;;;5012506;28;20422;-61
2023/07/11 05:13:31;;;;;;;10.30;9.20;;;;;;;;;;5012988;28;20454;-61
2023/07/11 05:16:04;;;;;;;14.00;8.77;;;;;;;;;;5012503;28;20909;-61
2023/07/11 05:18:30;;;;;;;11.13;10.17;;;;;;;;;;5012633;28;20412;-61
2023/07/11 05:20:56;;;;;;;10.50;8.80;;;;;;;;;;5012292;28;20432;-61
2023/07/11 05:23:24;;;;;;;13.53;9.43;;;;;;;;;;5012582;28;20411;-61
2023/07/11 05:25:50;;;;;;;10.03;9.17;;;;;;;;;;5012266;28;20417;-61
2023/07/11 05:28:16;;;;;;;10.73;9.80;;;;;;;;;;5012226;28;20506;-61
2023/07/11 05:30:42;;;;;;;10.43;9.43;;;;;;;;;;5012729;28;20430;-61
2023/07/11 05:33:08;;;;;;;9.97;8.80;;;;;;;;;;5012549;28;20413;-61
2023/07/11 05:35:37;;;;;;;11.83;9.40;;;;;;;;;;5012776;28;20435;-61
2023/07/11 05:38:03;;;;;;;12.00;9.20;;;;;;;;;;5012242;28;20485;-61
2023/07/11 05:40:30;;;;;;;9.43;8.63;;;;;;;;;;5011287;28;20911;-61
2023/07/11 05:42:56;;;;;;;10.80;9.17;;;;;;;;;;5012915;28;20808;-61
2023/07/11 05:45:22;;;;;;;9.87;8.97;;;;;;;;;;5012805;28;20442;-61
2023/07/11 05:47:48;;;;;;;8.93;8.27;;;;;;;;;;5014847;28;20443;-61
2023/07/11 05:50:14;;;;;;;9.43;8.63;;;;;;;;;;5016711;28;20428;-61
2023/07/11 05:52:40;;;;;;;16.13;8.47;;;;;;;;;;5016317;28;20534;-61
2023/07/11 05:55:06;;;;;;;8.73;8.07;;;;;;;;;;5016382;28;20522;-61
2023/07/11 05:57:32;;;;;;;12.10;8.47;;;;;;;;;;5016832;28;20549;-61
2023/07/11 05:59:58;;;;;;;9.83;8.70;;;;;;;;;;5015769;28;21022;-61
2023/07/11 06:02:24;;;;;;;10.10;8.90;;;;;;;;;;5016700;28;20408;-62
2023/07/11 06:04:53;;;;;;;14.43;8.30;;;;;;;;;;5015361;28;20464;-61
2023/07/11 06:07:19;;;;;;;9.40;8.60;;;;;;;;;;5015188;28;20464;-61
2023/07/11 06:09:47;;;;;;;11.60;9.13;;;;;;;;;;5015476;28;20920;-61
2023/07/11 06:12:13;;;;;;;9.27;8.57;;;;;;;;;;5015748;28;20506;-61
2023/07/11 06:14:39;;;;;;;10.23;9.30;;;;;;;;;;5015972;28;20444;-61
2023/07/11 06:17:05;;;;;;;10.20;9.40;;;;;;;;;;5015798;28;20973;-61
2023/07/11 06:19:34;;;;;;;9.77;9.07;;;;;;;;;;5016322;28;20405;-61
2023/07/11 06:22:00;;;;;;;11.50;9.80;;;;;;;;;;5015514;28;20409;-61
2023/07/11 06:24:31;;;;;;;13.10;9.60;;;;;;;;;;5016528;28;20411;-62
2023/07/11 06:26:57;;;;;;;10.43;9.20;;;;;;;;;;5016095;28;20805;-62
2023/07/11 06:29:23;;;;;;;10.13;8.80;;;;;;;;;;5016034;28;20413;-62
2023/07/11 06:31:50;;;;;;;10.17;9.30;;;;;;;;;;5015976;28;20493;-62
2023/07/11 06:34:16;;;;;;;13.30;8.83;;;;;;;;;;5015757;28;20421;-62
2023/07/11 06:36:42;;;;;;;10.03;9.13;;;;;;;;;;5015279;28;20463;-62
2023/07/11 06:39:08;;;;;;;43.07;27.43;;;;;;;;;;5014916;28;20773;-61
2023/07/11 06:41:34;;;;;;;10.53;9.07;;;;;;;;;;5015521;28;20423;-61
2023/07/11 06:44:00;;;;;;;18.70;13.27;;;;;;;;;;5015471;28;20407;-62
2023/07/11 06:46:26;;;;;;;11.03;9.93;;;;;;;;;;5015743;28;20769;-62
2023/07/11 06:48:54;;;;;;;102.77;59.10;;;;;;;;;;5015228;28;20423;-62
2023/07/11 06:51:24;;;;;;;16.43;11.10;;;;;;;;;;5015325;28;20418;-62
2023/07/11 06:53:54;;;;;;;11.93;10.60;;;;;;;;;;5015452;28;20477;-62
2023/07/11 06:56:20;;;;;;;9.50;8.60;;;;;;;;;;5015239;28;20459;-62
2023/07/11 06:58:47;;;;;;;9.03;8.33;;;;;;;;;;5014183;28;20443;-62
2023/07/11 07:01:14;;;;;;;11.80;8.40;;;;;;;;;;5013867;28;20438;-62
2023/07/11 07:03:42;;;;;;;9.83;8.87;;;;;;;;;;5015393;28;20422;-62
2023/07/11 07:06:10;;;;;;;11.77;8.40;;;;;;;;;;5015295;28;20465;-62
2023/07/11 07:08:36;;;;;;;9.43;8.53;;;;;;;;;;5015441;28;20467;-62
2023/07/11 07:11:02;;;;;;;11.80;8.57;;;;;;;;;;5014133;28;20494;-60
2023/07/11 07:13:29;;;;;;;14.90;9.33;;;;;;;;;;5014525;28;20490;-61
2023/07/11 07:15:56;;;;;;;10.70;8.90;;;;;;;;;;5014300;28;20920;-61
2023/07/11 07:18:22;;;;;;;12.20;8.07;;;;;;;;;;5014870;28;20790;-61
2023/07/11 07:20:49;;;;;;;9.27;8.37;;;;;;;;;;5013620;28;20424;-61
2023/07/11 07:23:18;;;;;;;8.60;7.87;;;;;;;;;;5014582;28;20891;-61
2023/07/11 07:25:50;;;;;;;9.37;8.43;;;;;;;;;;5014487;28;20470;-61
2023/07/11 07:28:16;;;;;;;8.97;8.07;;;;;;;;;;5014815;28;20526;-61
2023/07/11 07:30:48;;;;;;;9.00;8.20;;;;;;;;;;5014626;28;20500;-61
2023/07/11 07:33:15;;;;;;;8.97;8.27;;;;;;;;;;5013561;28;20448;-61
2023/07/11 07:35:41;;;;;;;11.77;9.70;;;;;;;;;;5014756;28;20445;-61
2023/07/11 07:38:12;;;;;;;9.00;8.17;;;;;;;;;;5014592;28;20474;-61
2023/07/11 07:40:39;;;;;;;10.30;8.47;;;;;;;;;;5014526;28;20500;-61
2023/07/11 07:43:09;;;;;;;12.60;9.43;;;;;;;;;;5014550;28;20428;-61
2023/07/11 07:45:38;;;;;;;8.97;8.27;;;;;;;;;;5014454;28;20496;-61
2023/07/11 07:48:04;;;;;;;10.37;8.30;;;;;;;;;;5014061;28;20439;-61
2023/07/11 07:50:32;;;;;;;8.83;8.00;;;;;;;;;;5014007;28;20897;-61
2023/07/11 07:53:00;;;;;;;10.47;7.90;;;;;;;;;;5014478;28;20455;-61
2023/07/11 07:55:26;;;;;;;8.70;8.00;;;;;;;;;;5014225;28;20450;-60
2023/07/11 07:57:54;;;;;;;14.17;9.03;;;;;;;;;;5014166;28;20567;-61
2023/07/11 08:00:20;;;;;;;8.50;7.80;;;;;;;;;;5014249;28;20801;-61
2023/07/11 08:02:46;;;;;;;8.57;7.73;;;;;;;;;;5014239;28;20405;-61
2023/07/11 08:05:12;;;;;;;8.63;7.87;;;;;;;;;;5014028;28;20417;-61
2023/07/11 08:07:38;;;;;;;9.97;8.20;;;;;;;;;;5014474;28;20943;-61
2023/07/11 08:10:05;;;;;;;8.47;7.63;;;;;;;;;;5013799;28;20409;-61
2023/07/11 08:12:33;;;;;;;7.80;7.33;;;;;;;;;;5014195;28;20417;-61
2023/07/11 08:15:03;;;;;;;11.47;7.30;;;;;;;;;;5014126;28;20868;-61
2023/07/11 08:17:29;;;;;;;8.27;7.47;;;;;;;;;;5014303;28;20495;-60
2023/07/11 08:19:55;;;;;;;9.07;8.37;;;;;;;;;;5014878;28;20436;-61
2023/07/11 08:22:23;;;;;;;8.07;7.27;;;;;;;;;;5013569;28;20900;-61
2023/07/11 08:24:49;;;;;;;7.03;6.60;;;;;;;;;;5013806;28;20507;-61
2023/07/11 08:27:17;;;;;;;9.17;8.37;;;;;;;;;;5013870;28;20504;-61
2023/07/11 08:29:46;;;;;;;10.27;8.73;;;;;;;;;;5013496;28;20960;-61
2023/07/11 08:32:12;;;;;;;9.03;8.10;;;;;;;;;;5013666;28;20456;-61
2023/07/11 08:34:39;;;;;;;8.63;7.93;;;;;;;;;;5013290;28;20444;-61
2023/07/11 08:37:07;;;;;;;8.70;7.83;;;;;;;;;;5013474;28;20526;-61
2023/07/11 08:39:35;;;;;;;8.67;7.97;;;;;;;;;;5013687;28;20469;-61
2023/07/11 08:42:04;;;;;;;8.63;7.77;;;;;;;;;;5014048;28;20470;-61
2023/07/11 08:44:52;;;;;;;9.70;8.23;;;;;;;;;;5013581;28;20952;-61
2023/07/11 08:47:24;;;;;;;10.00;7.50;;;;;;;;;;5013590;28;20446;-61
2023/07/11 08:49:56;;;;;;;9.03;8.13;;;;;;;;;;5013344;28;20864;-61
2023/07/11 08:52:24;;;;;;;8.10;7.50;;;;;;;;;;5013496;28;20500;-61
2023/07/11 08:54:51;;;;;;;11.93;8.70;;;;;;;;;;5013064;28;20458;-61
2023/07/11 08:57:18;;;;;;;8.90;8.07;;;;;;;;;;5013186;28;20475;-61
2023/07/11 08:59:56;;;;;;;8.87;7.90;;;;;;;;;;5013034;28;20448;-61
2023/07/11 09:02:30;;;;;;;8.70;7.77;;;;;;;;;;5013177;28;20914;-62
2023/07/11 09:04:59;;;;;;;8.87;8.10;;;;;;;;;;5013344;28;20452;-61
2023/07/11 09:07:42;;;;;;;11.50;7.60;;;;;;;;;;5013234;28;20433;-61
2023/07/11 09:10:16;;;;;;;8.57;7.47;;;;;;;;;;5013027;28;20405;-62
2023/07/11 09:12:47;;;;;;;9.43;8.50;;;;;;;;;;5011756;28;20787;-62
2023/07/11 09:15:13;;;;;;;8.57;7.67;;;;;;;;;;5013386;28;20405;-62
2023/07/11 09:17:55;;;;;;;9.10;7.00;;;;;;;;;;5011633;28;20479;-61
2023/07/11 09:20:28;;;;;;;8.23;7.10;;;;;;;;;;5010935;28;20556;-61
2023/07/11 09:22:59;;;;;;;11.43;8.40;;;;;;;;;;5011954;28;20412;-61
2023/07/11 09:25:36;;;;;;;8.20;7.43;;;;;;;;;;5012892;28;20409;-61
2023/07/11 09:28:12;;;;;;;12.20;7.83;;;;;;;;;;5012647;28;20425;-61
2023/07/11 09:30:58;;;;;;;8.30;7.20;;;;;;;;;;5012187;28;20416;-62
2023/07/11 09:33:28;;;;;;;7.63;6.80;;;;;;;;;;5011997;28;20421;-62
2023/07/11 09:35:56;;;;;;;8.33;7.53;;;;;;;;;;5012585;28;20873;-61
2023/07/11 09:38:28;;;;;;;12.00;7.50;;;;;;;;;;5012356;28;20432;-61
2023/07/11 09:41:06;;;;;;;7.57;7.07;;;;;;;;;;5012627;28;20750;-62
2023/07/11 09:43:32;;;;;;;9.13;7.40;;;;;;;;;;5012524;28;21058;-61
2023/07/11 09:46:00;;;;;;;8.90;7.50;;;;;;;;;;5012336;28;20461;-61
2023/07/11 09:48:30;;;;;;;10.93;6.80;;;;;;;;;;5012559;28;20180;-61
2023/07/11 09:51:11;;;;;;;10.50;6.60;;;;;;;;;;5012218;28;20437;-61
2023/07/11 09:53:41;;;;;;;8.27;7.47;;;;;;;;;;5012347;28;20413;-61
2023/07/11 09:56:10;;;;;;;7.63;6.90;;;;;;;;;;5012024;28;20900;-62
2023/07/11 09:58:36;;;;;;;11.47;7.63;;;;;;;;;;5010515;28;20468;-61
2023/07/11 10:01:04;;;;;;;8.00;7.30;;;;;;;;;;5011757;28;20433;-61
2023/07/11 10:03:30;;;;;;;13.37;7.60;;;;;;;;;;5012264;28;20437;-62
2023/07/11 10:05:59;;;;;;;11.10;8.03;;;;;;;;;;5011844;28;20823;-62
2023/07/11 10:08:46;;;;;;;11.27;7.60;;;;;;;;;;5011688;28;20447;-62
2023/07/11 10:11:13;;;;;;;8.93;7.50;;;;;;;;;;5011780;28;20448;-62
2023/07/11 10:13:42;;;;;;;11.33;6.90;;;;;;;;;;5012234;28;20412;-61
2023/07/11 10:16:15;;;;;;;8.00;6.40;;;;;;;;;;5012378;28;20840;-61
2023/07/11 10:18:44;;;;;;;7.60;6.70;;;;;;;;;;5012212;28;20413;-61
2023/07/11 10:21:12;;;;;;;7.63;6.90;;;;;;;;;;5012093;28;20421;-61
2023/07/11 10:23:39;;;;;;;6.53;6.00;;;;;;;;;;5012062;28;20421;-61
2023/07/11 10:26:10;;;;;;;14.73;6.37;;;;;;;;;;5011888;28;20421;-61
2023/07/11 10:28:39;;;;;;;12.97;6.10;;;;;;;;;;5012026;28;20500;-61
2023/07/11 10:31:17;;;;;;;8.60;6.33;;;;;;;;;;5012055;28;20428;-61
2023/07/11 10:33:49;;;;;;;10.80;6.43;;;;;;;;;;5015004;28;20436;-61
2023/07/11 10:36:24;;;;;;;6.87;6.47;;;;;;;;;;5015561;28;20456;-61
2023/07/11 10:38:51;;;;;;;6.30;5.80;;;;;;;;;;5015635;28;20519;-61
2023/07/11 10:41:23;;;;;;;15.83;6.63;;;;;;;;;;5015494;28;20411;-61
2023/07/11 10:43:51;;;;;;;7.90;7.23;;;;;;;;;;5015590;28;20555;-61
2023/07/11 10:46:31;;;;;;;6.50;6.10;;;;;;;;;;5015326;28;20916;-61
2023/07/11 10:49:01;;;;;;;7.80;7.00;;;;;;;;;;5015413;28;20424;-61
2023/07/11 10:51:31;;;;;;;8.47;6.80;;;;;;;;;;5015079;28;20419;-61
2023/07/11 10:54:00;;;;;;;12.53;6.50;;;;;;;;;;5015088;28;20445;-61
2023/07/11 10:56:31;;;;;;;13.80;6.80;;;;;;;;;;5015076;28;20480;-61
2023/07/11 10:58:58;;;;;;;9.10;6.70;;;;;;;;;;5015464;28;20543;-61
2023/07/11 11:01:38;;;;;;;7.80;6.70;;;;;;;;;;5015086;28;20465;-61
2023/07/11 11:04:13;;;;;;;10.43;7.10;;;;;;;;;;5015087;28;20417;-62
2023/07/11 11:06:50;;;;;;;7.80;7.00;;;;;;;;;;5014909;28;20468;-61
2023/07/11 11:09:22;;;;;;;8.50;6.43;;;;;;;;;;5015107;28;20892;-61
2023/07/11 11:11:57;;;;;;;7.80;6.47;;;;;;;;;;5013830;28;20455;-61
2023/07/11 11:14:39;;;;;;;9.50;6.47;;;;;;;;;;5014877;28;20416;-61
2023/07/11 11:17:24;;;;;;;7.03;6.10;;;;;;;;;;5015453;28;20472;-61
2023/07/11 11:19:59;;;;;;;12.60;6.60;;;;;;;;;;5013758;28;20425;-62
2023/07/11 11:22:30;;;;;;;6.00;5.43;;;;;;;;;;5014743;28;20409;-62
2023/07/11 11:25:00;;;;;;;7.33;5.63;;;;;;;;;;5014985;28;20401;-62
2023/07/11 11:27:38;;;;;;;7.07;5.60;;;;;;;;;;5014641;28;20436;-62
2023/07/11 11:30:10;;;;;;;6.10;5.50;;;;;;;;;;5014602;28;20421;-62
2023/07/11 11:32:58;;;;;;;6.13;5.70;;;;;;;;;;5014556;28;20416;-62
2023/07/11 11:35:24;;;;;;;6.70;6.13;;;;;;;;;;5014593;28;20943;-62
2023/07/11 11:38:04;;;;;;;7.60;6.90;;;;;;;;;;5014302;28;20476;-58
2023/07/11 11:40:31;;;;;;;6.10;5.67;;;;;;;;;;5014931;28;20244;-56
2023/07/11 11:43:00;;;;;;;6.70;6.27;;;;;;;;;;5014990;28;20493;-57
2023/07/11 11:45:26;;;;;;;6.43;5.93;;;;;;;;;;5013827;28;20444;-57
2023/07/11 11:47:58;;;;;;;6.93;6.30;;;;;;;;;;5014493;28;20452;-56
2023/07/11 11:50:25;;;;;;;7.63;6.87;;;;;;;;;;5014491;28;20433;-56
2023/07/11 11:52:55;;;;;;;6.63;6.23;;;;;;;;;;5014692;28;20911;-57
2023/07/11 11:55:29;;;;;;;6.70;6.20;;;;;;;;;;5014377;28;20916;-55
2023/07/11 11:57:57;;;;;;;8.13;6.10;;;;;;;;;;5014080;28;20471;-56
2023/07/11 12:00:43;;;;;;;9.37;6.50;;;;;;;;;;5013810;28;21029;-56
2023/07/11 12:03:25;;;;;;;10.13;6.03;;;;;;;;;;5012587;28;20538;-56
2023/07/11 12:05:54;;;;;;;7.93;5.90;;;;;;;;;;5014111;28;20904;-55
2023/07/11 12:08:26;;;;;;;13.67;6.07;;;;;;;;;;5013901;28;20440;-55
2023/07/11 12:11:02;;;;;;;8.47;5.83;;;;;;;;;;5013990;28;20815;-57
2023/07/11 12:13:29;;;;;;;7.20;5.60;;;;;;;;;;5013909;28;20502;-55
2023/07/11 12:15:58;;;;;;;5.83;5.43;;;;;;;;;;5013699;28;20432;-55
2023/07/11 12:18:29;;;;;;;6.20;5.80;;;;;;;;;;5013763;28;20448;-57
2023/07/11 12:21:24;;;;;;;6.27;5.70;;;;;;;;;;5013466;28;20479;-56
2023/07/11 12:23:52;;;;;;;5.87;5.33;;;;;;;;;;5011244;28;20441;-56
2023/07/11 12:26:25;;;;;;;7.83;5.50;;;;;;;;;;5013656;28;20421;-56
2023/07/11 12:28:52;;;;;;;7.93;6.10;;;;;;;;;;5014099;28;20786;-55
2023/07/11 12:31:23;;;;;;;11.77;6.30;;;;;;;;;;5013311;28;20417;-55
2023/07/11 12:34:13;;;;;;;6.27;5.63;;;;;;;;;;5013753;28;20784;-56
2023/07/11 12:37:11;;;;;;;7.17;5.80;;;;;;;;;;5013010;28;20526;-56
2023/07/11 12:39:37;;;;;;;6.47;5.90;;;;;;;;;;5012968;28;20413;-56
2023/07/11 12:42:06;;;;;;;6.07;5.67;;;;;;;;;;5013385;28;20519;-56
2023/07/11 12:44:33;;;;;;;6.57;5.57;;;;;;;;;;5013174;28;20182;-56
2023/07/11 12:47:02;;;;;;;7.13;5.33;;;;;;;;;;5013212;28;20413;-55
2023/07/11 12:49:31;;;;;;;13.67;5.57;;;;;;;;;;5012762;28;20428;-56
2023/07/11 12:52:10;;;;;;;6.40;5.70;;;;;;;;;;5013265;28;20475;-55
2023/07/11 12:54:36;;;;;;;8.67;5.07;;;;;;;;;;5012851;28;20945;-56
2023/07/11 12:57:07;;;;;;;14.80;5.50;;;;;;;;;;5013030;28;20464;-55
2023/07/11 12:59:33;;;;;;;9.80;5.87;;;;;;;;;;5013048;28;20416;-55
2023/07/11 13:02:01;;;;;;;9.60;5.67;;;;;;;;;;5013248;28;20845;-56
2023/07/11 13:04:33;;;;;;;7.03;4.83;;;;;;;;;;5013270;28;20432;-57
2023/07/11 13:06:59;;;;;;;5.93;5.30;;;;;;;;;;5013659;28;20413;-56
2023/07/11 13:09:26;;;;;;;6.37;5.50;;;;;;;;;;5013145;28;20441;-56
2023/07/11 13:11:52;;;;;;;7.80;5.10;;;;;;;;;;5012971;28;20413;-56
2023/07/11 13:14:21;;;;;;;10.50;5.80;;;;;;;;;;5012846;28;20458;-56
2023/07/11 13:16:49;;;;;;;5.67;5.13;;;;;;;;;;5012723;28;20472;-56
2023/07/11 13:19:16;;;;;;;5.93;5.10;;;;;;;;;;5012697;28;20458;-56
2023/07/11 13:21:46;;;;;;;6.77;5.60;;;;;;;;;;5012755;28;20428;-56
2023/07/11 13:24:18;;;;;;;5.80;5.10;;;;;;;;;;5011374;28;20563;-56
2023/07/11 13:26:44;;;;;;;6.07;5.67;;;;;;;;;;5011482;28;20417;-56
2023/07/11 13:29:10;;;;;;;12.47;5.33;;;;;;;;;;5012723;28;20420;-56
2023/07/11 13:31:37;;;;;;;9.63;5.43;;;;;;;;;;5012576;28;20692;-56
2023/07/11 13:34:19;;;;;;;7.70;5.43;;;;;;;;;;5012657;28;20220;-56
2023/07/11 13:36:49;;;;;;;6.23;5.73;;;;;;;;;;5012421;28;20468;-56
2023/07/11 13:39:23;;;;;;;5.63;5.07;;;;;;;;;;5012481;28;20601;-56
2023/07/11 13:41:56;;;;;;;5.73;5.33;;;;;;;;;;5012468;28;20412;-55
2023/07/11 13:44:33;;;;;;;5.60;5.27;;;;;;;;;;5012852;28;20849;-56
2023/07/11 13:47:01;;;;;;;8.37;5.40;;;;;;;;;;5012293;28;20423;-56
2023/07/11 13:49:33;;;;;;;5.73;5.20;;;;;;;;;;5012204;28;20472;-57
2023/07/11 13:52:00;;;;;;;5.90;5.40;;;;;;;;;;5011974;28;20417;-57
2023/07/11 13:54:34;;;;;;;9.20;5.57;;;;;;;;;;5012260;28;20417;-59
2023/07/11 13:57:03;;;;;;;6.77;6.07;;;;;;;;;;5011209;28;20488;-62
2023/07/11 13:59:31;;;;;;;8.07;5.47;;;;;;;;;;5012298;28;20450;-59
2023/07/11 14:01:57;;;;;;;11.00;6.00;;;;;;;;;;5011957;28;20440;-57
2023/07/11 14:04:28;;;;;;;6.57;5.97;;;;;;;;;;5011833;28;20428;-57
2023/07/11 14:06:54;;;;;;;6.13;5.73;;;;;;;;;;5012484;28;20663;-57
2023/07/11 14:09:20;;;;;;;8.70;6.00;;;;;;;;;;5016516;28;20422;-57
2023/07/11 14:11:48;;;;;;;7.00;6.37;;;;;;;;;;5015715;28;20440;-59
2023/07/11 14:14:18;;;;;;;6.67;6.00;;;;;;;;;;5016023;28;20581;-58
2023/07/11 14:16:44;;;;;;;9.50;5.60;;;;;;;;;;5015487;28;20466;-59
2023/07/11 14:19:32;;;;;;;6.43;5.20;;;;;;;;;;5015867;28;20441;-59
2023/07/11 14:21:59;;;;;;;6.03;5.50;;;;;;;;;;5016201;28;20433;-59
2023/07/11 14:24:28;;;;;;;7.30;6.57;;;;;;;;;;5015341;28;20412;-59
2023/07/11 14:26:54;;;;;;;8.93;6.40;;;;;;;;;;5016068;28;20413;-59
2023/07/11 14:29:24;;;;;;;6.87;6.23;;;;;;;;;;5015881;28;20478;-58
2023/07/11 14:31:54;;;;;;;8.60;6.40;;;;;;;;;;5014289;28;20435;-58
2023/07/11 14:34:21;;;;;;;13.10;5.83;;;;;;;;;;5015853;28;20420;-59
2023/07/11 14:36:49;;;;;;;7.33;6.70;;;;;;;;;;5015519;28;20467;-59
2023/07/11 14:39:15;;;;;;;12.30;7.50;;;;;;;;;;5015615;28;20487;-59
2023/07/11 14:41:42;;;;;;;9.07;7.40;;;;;;;;;;5015389;28;20421;-59
2023/07/11 14:44:29;;;;;;;6.90;6.50;;;;;;;;;;5015060;28;20417;-59
2023/07/11 14:46:57;;;;;;;6.50;5.90;;;;;;;;;;5015497;28;20417;-59
2023/07/11 14:49:26;;;;;;;11.93;5.90;;;;;;;;;;5015584;28;20974;-59